sensor_id;sensor_type;location;lat;lon;timestamp;P1;durP1;ratioP1;P2;durP2;ratioP2
52106;SDS011;38105;52.968;5.974;2023-05-09T00:01:14;62.92;;;41.47;;
52106;SDS011;38105;52.968;5.974;2023-05-09T00:03:41;58.85;;;40.08;;
52106;SDS011;38105;52.968;5.974;2023-05-09T00:06:07;61.95;;;39.47;;
52106;SDS011;38105;52.968;5.974;2023-05-09T00:08:33;55.20;;;37.05;;
52106;SDS011;38105;52.968;5.974;2023-05-09T00:11:00;60.63;;;38.85;;
52106;SDS011;38105;52.968;5.974;2023-05-09T00:13:26;49.13;;;35.60;;
52106;SDS011;38105;52.968;5.974;2023-05-09T00:15:52;57.08;;;38.28;;
52106;SDS011;38105;52.968;5.974;2023-05-09T00:18:21;62.45;;;39.95;;
52106;SDS011;38105;52.968;5.974;2023-05-09T00:20:48;64.03;;;40.28;;
52106;SDS011;38105;52.968;5.974;2023-05-09T00:23:14;68.63;;;40.60;;
52106;SDS011;38105;52.968;5.974;2023-05-09T00:25:40;62.53;;;40.38;;
52106;SDS011;38105;52.968;5.974;2023-05-09T00:28:06;63.97;;;40.25;;
52106;SDS011;38105;52.968;5.974;2023-05-09T00:30:32;64.03;;;37.95;;
52106;SDS011;38105;52.968;5.974;2023-05-09T00:32:58;58.13;;;38.65;;
52106;SDS011;38105;52.968;5.974;2023-05-09T00:35:23;67.57;;;41.70;;
52106;SDS011;38105;52.968;5.974;2023-05-09T00:37:49;65.57;;;40.97;;
52106;SDS011;38105;52.968;5.974;2023-05-09T00:40:15;69.63;;;40.50;;
52106;SDS011;38105;52.968;5.974;2023-05-09T00:42:40;69.60;;;43.08;;
52106;SDS011;38105;52.968;5.974;2023-05-09T00:45:06;68.68;;;42.22;;
52106;SDS011;38105;52.968;5.974;2023-05-09T00:47:33;65.57;;;41.10;;
52106;SDS011;38105;52.968;5.974;2023-05-09T00:50:00;75.93;;;43.10;;
52106;SDS011;38105;52.968;5.974;2023-05-09T00:52:26;68.88;;;40.58;;
52106;SDS011;38105;52.968;5.974;2023-05-09T00:54:52;57.20;;;38.70;;
52106;SDS011;38105;52.968;5.974;2023-05-09T00:57:19;77.03;;;43.45;;
52106;SDS011;38105;52.968;5.974;2023-05-09T00:59:44;61.65;;;39.85;;
52106;SDS011;38105;52.968;5.974;2023-05-09T01:02:10;60.78;;;38.70;;
52106;SDS011;38105;52.968;5.974;2023-05-09T01:04:36;63.70;;;41.15;;
52106;SDS011;38105;52.968;5.974;2023-05-09T01:07:04;58.55;;;38.40;;
52106;SDS011;38105;52.968;5.974;2023-05-09T01:09:38;59.58;;;38.55;;
52106;SDS011;38105;52.968;5.974;2023-05-09T01:23:49;57.00;;;37.37;;
52106;SDS011;38105;52.968;5.974;2023-05-09T01:31:49;64.57;;;40.63;;
52106;SDS011;38105;52.968;5.974;2023-05-09T01:34:17;67.65;;;40.88;;
52106;SDS011;38105;52.968;5.974;2023-05-09T01:36:44;63.80;;;40.92;;
52106;SDS011;38105;52.968;5.974;2023-05-09T01:39:13;58.25;;;37.63;;
52106;SDS011;38105;52.968;5.974;2023-05-09T01:41:41;64.35;;;39.60;;
52106;SDS011;38105;52.968;5.974;2023-05-09T01:44:08;62.13;;;39.33;;
52106;SDS011;38105;52.968;5.974;2023-05-09T01:46:36;67.10;;;40.38;;
52106;SDS011;38105;52.968;5.974;2023-05-09T01:49:02;63.35;;;40.05;;
52106;SDS011;38105;52.968;5.974;2023-05-09T01:51:29;63.88;;;39.67;;
52106;SDS011;38105;52.968;5.974;2023-05-09T01:53:55;67.13;;;41.38;;
52106;SDS011;38105;52.968;5.974;2023-05-09T01:56:23;61.53;;;39.30;;
52106;SDS011;38105;52.968;5.974;2023-05-09T01:58:50;59.53;;;40.30;;
52106;SDS011;38105;52.968;5.974;2023-05-09T02:01:17;64.60;;;40.40;;
52106;SDS011;38105;52.968;5.974;2023-05-09T02:03:44;62.72;;;39.38;;
52106;SDS011;38105;52.968;5.974;2023-05-09T02:06:14;64.20;;;38.58;;
52106;SDS011;38105;52.968;5.974;2023-05-09T02:08:42;65.15;;;39.80;;
52106;SDS011;38105;52.968;5.974;2023-05-09T02:11:08;61.50;;;37.88;;
52106;SDS011;38105;52.968;5.974;2023-05-09T02:13:35;69.50;;;39.83;;
52106;SDS011;38105;52.968;5.974;2023-05-09T02:16:02;67.20;;;39.67;;
52106;SDS011;38105;52.968;5.974;2023-05-09T02:18:29;70.78;;;41.63;;
52106;SDS011;38105;52.968;5.974;2023-05-09T02:20:56;70.45;;;40.90;;
52106;SDS011;38105;52.968;5.974;2023-05-09T02:23:22;66.13;;;38.22;;
52106;SDS011;38105;52.968;5.974;2023-05-09T02:25:47;67.85;;;40.55;;
52106;SDS011;38105;52.968;5.974;2023-05-09T02:28:14;69.90;;;41.33;;
52106;SDS011;38105;52.968;5.974;2023-05-09T02:30:43;71.35;;;40.72;;
52106;SDS011;38105;52.968;5.974;2023-05-09T02:33:11;69.68;;;39.53;;
52106;SDS011;38105;52.968;5.974;2023-05-09T02:35:38;68.78;;;42.42;;
52106;SDS011;38105;52.968;5.974;2023-05-09T02:38:10;74.85;;;42.95;;
52106;SDS011;38105;52.968;5.974;2023-05-09T02:40:37;69.43;;;40.47;;
52106;SDS011;38105;52.968;5.974;2023-05-09T02:43:03;77.70;;;43.47;;
52106;SDS011;38105;52.968;5.974;2023-05-09T02:45:29;78.70;;;42.53;;
52106;SDS011;38105;52.968;5.974;2023-05-09T02:47:56;69.50;;;42.20;;
52106;SDS011;38105;52.968;5.974;2023-05-09T02:50:21;74.30;;;42.78;;
52106;SDS011;38105;52.968;5.974;2023-05-09T02:52:47;76.05;;;43.70;;
52106;SDS011;38105;52.968;5.974;2023-05-09T02:55:13;72.50;;;41.92;;
52106;SDS011;38105;52.968;5.974;2023-05-09T02:57:38;68.53;;;40.97;;
52106;SDS011;38105;52.968;5.974;2023-05-09T03:00:04;81.05;;;44.75;;
52106;SDS011;38105;52.968;5.974;2023-05-09T03:02:36;78.10;;;44.53;;
52106;SDS011;38105;52.968;5.974;2023-05-09T03:05:02;87.18;;;47.47;;
52106;SDS011;38105;52.968;5.974;2023-05-09T03:07:28;89.22;;;45.83;;
52106;SDS011;38105;52.968;5.974;2023-05-09T03:09:54;82.40;;;44.38;;
52106;SDS011;38105;52.968;5.974;2023-05-09T03:12:20;88.15;;;46.78;;
52106;SDS011;38105;52.968;5.974;2023-05-09T03:14:45;82.55;;;45.20;;
52106;SDS011;38105;52.968;5.974;2023-05-09T03:17:11;78.05;;;44.28;;
52106;SDS011;38105;52.968;5.974;2023-05-09T03:19:41;85.85;;;45.85;;
52106;SDS011;38105;52.968;5.974;2023-05-09T03:22:07;92.95;;;47.88;;
52106;SDS011;38105;52.968;5.974;2023-05-09T03:24:32;93.80;;;47.72;;
52106;SDS011;38105;52.968;5.974;2023-05-09T03:26:58;85.65;;;48.15;;
52106;SDS011;38105;52.968;5.974;2023-05-09T03:29:24;82.43;;;47.20;;
52106;SDS011;38105;52.968;5.974;2023-05-09T03:31:50;81.97;;;47.10;;
52106;SDS011;38105;52.968;5.974;2023-05-09T03:34:16;89.95;;;47.58;;
52106;SDS011;38105;52.968;5.974;2023-05-09T03:36:41;95.88;;;50.00;;
52106;SDS011;38105;52.968;5.974;2023-05-09T03:39:07;97.63;;;50.88;;
52106;SDS011;38105;52.968;5.974;2023-05-09T03:41:34;92.32;;;48.38;;
52106;SDS011;38105;52.968;5.974;2023-05-09T03:44:01;96.25;;;50.42;;
52106;SDS011;38105;52.968;5.974;2023-05-09T03:46:27;92.03;;;49.03;;
52106;SDS011;38105;52.968;5.974;2023-05-09T03:48:53;97.18;;;49.60;;
52106;SDS011;38105;52.968;5.974;2023-05-09T03:51:19;99.57;;;51.00;;
52106;SDS011;38105;52.968;5.974;2023-05-09T03:53:45;96.25;;;47.97;;
52106;SDS011;38105;52.968;5.974;2023-05-09T03:56:11;98.30;;;50.65;;
52106;SDS011;38105;52.968;5.974;2023-05-09T03:58:37;99.75;;;51.28;;
52106;SDS011;38105;52.968;5.974;2023-05-09T04:01:03;105.15;;;52.00;;
52106;SDS011;38105;52.968;5.974;2023-05-09T04:03:28;98.13;;;50.15;;
52106;SDS011;38105;52.968;5.974;2023-05-09T04:05:54;103.82;;;52.25;;
52106;SDS011;38105;52.968;5.974;2023-05-09T04:08:20;95.53;;;51.90;;
52106;SDS011;38105;52.968;5.974;2023-05-09T04:10:46;103.22;;;52.47;;
52106;SDS011;38105;52.968;5.974;2023-05-09T04:13:11;97.55;;;50.70;;
52106;SDS011;38105;52.968;5.974;2023-05-09T04:15:37;99.72;;;51.10;;
52106;SDS011;38105;52.968;5.974;2023-05-09T04:18:02;91.28;;;50.33;;
52106;SDS011;38105;52.968;5.974;2023-05-09T04:20:28;90.38;;;49.25;;
52106;SDS011;38105;52.968;5.974;2023-05-09T04:22:55;103.32;;;52.63;;
52106;SDS011;38105;52.968;5.974;2023-05-09T04:25:21;106.72;;;52.63;;
52106;SDS011;38105;52.968;5.974;2023-05-09T04:27:47;101.40;;;51.67;;
52106;SDS011;38105;52.968;5.974;2023-05-09T04:30:13;105.82;;;53.60;;
52106;SDS011;38105;52.968;5.974;2023-05-09T04:32:39;100.95;;;53.45;;
52106;SDS011;38105;52.968;5.974;2023-05-09T04:35:09;111.68;;;55.03;;
52106;SDS011;38105;52.968;5.974;2023-05-09T04:37:35;112.90;;;54.63;;
52106;SDS011;38105;52.968;5.974;2023-05-09T04:40:01;111.05;;;55.25;;
52106;SDS011;38105;52.968;5.974;2023-05-09T04:42:28;116.40;;;56.42;;
52106;SDS011;38105;52.968;5.974;2023-05-09T04:44:54;121.20;;;55.72;;
52106;SDS011;38105;52.968;5.974;2023-05-09T04:47:19;120.40;;;58.60;;
52106;SDS011;38105;52.968;5.974;2023-05-09T04:49:45;117.10;;;57.80;;
52106;SDS011;38105;52.968;5.974;2023-05-09T04:52:11;116.95;;;58.60;;
52106;SDS011;38105;52.968;5.974;2023-05-09T04:54:36;110.53;;;56.90;;
52106;SDS011;38105;52.968;5.974;2023-05-09T04:57:02;122.65;;;58.88;;
52106;SDS011;38105;52.968;5.974;2023-05-09T04:59:28;119.18;;;57.15;;
52106;SDS011;38105;52.968;5.974;2023-05-09T05:01:54;116.78;;;59.20;;
52106;SDS011;38105;52.968;5.974;2023-05-09T05:04:20;120.30;;;58.88;;
52106;SDS011;38105;52.968;5.974;2023-05-09T05:06:45;116.88;;;58.60;;
52106;SDS011;38105;52.968;5.974;2023-05-09T05:09:11;127.43;;;61.38;;
52106;SDS011;38105;52.968;5.974;2023-05-09T05:11:37;124.10;;;61.70;;
52106;SDS011;38105;52.968;5.974;2023-05-09T05:14:03;123.25;;;60.42;;
52106;SDS011;38105;52.968;5.974;2023-05-09T05:16:28;120.22;;;58.28;;
52106;SDS011;38105;52.968;5.974;2023-05-09T05:18:54;117.80;;;58.55;;
52106;SDS011;38105;52.968;5.974;2023-05-09T05:21:20;120.47;;;59.92;;
52106;SDS011;38105;52.968;5.974;2023-05-09T05:23:45;129.00;;;63.92;;
52106;SDS011;38105;52.968;5.974;2023-05-09T05:26:11;120.53;;;60.22;;
52106;SDS011;38105;52.968;5.974;2023-05-09T05:28:36;124.82;;;60.35;;
52106;SDS011;38105;52.968;5.974;2023-05-09T05:31:05;121.15;;;60.33;;
52106;SDS011;38105;52.968;5.974;2023-05-09T05:33:31;123.90;;;62.20;;
52106;SDS011;38105;52.968;5.974;2023-05-09T05:35:56;123.53;;;61.85;;
52106;SDS011;38105;52.968;5.974;2023-05-09T05:38:22;120.95;;;62.03;;
52106;SDS011;38105;52.968;5.974;2023-05-09T05:40:48;119.80;;;61.85;;
52106;SDS011;38105;52.968;5.974;2023-05-09T05:43:13;122.55;;;62.25;;
52106;SDS011;38105;52.968;5.974;2023-05-09T05:45:39;114.95;;;62.50;;
52106;SDS011;38105;52.968;5.974;2023-05-09T05:48:05;115.93;;;61.65;;
52106;SDS011;38105;52.968;5.974;2023-05-09T05:50:30;114.05;;;60.55;;
52106;SDS011;38105;52.968;5.974;2023-05-09T05:52:56;121.22;;;64.70;;
52106;SDS011;38105;52.968;5.974;2023-05-09T05:55:21;122.70;;;62.80;;
52106;SDS011;38105;52.968;5.974;2023-05-09T05:57:47;128.20;;;65.72;;
52106;SDS011;38105;52.968;5.974;2023-05-09T06:00:13;125.18;;;63.55;;
52106;SDS011;38105;52.968;5.974;2023-05-09T06:02:42;120.63;;;64.55;;
52106;SDS011;38105;52.968;5.974;2023-05-09T06:05:09;123.90;;;65.43;;
52106;SDS011;38105;52.968;5.974;2023-05-09T06:07:35;123.53;;;66.00;;
52106;SDS011;38105;52.968;5.974;2023-05-09T06:10:01;118.95;;;64.00;;
52106;SDS011;38105;52.968;5.974;2023-05-09T06:12:27;122.38;;;65.35;;
52106;SDS011;38105;52.968;5.974;2023-05-09T06:14:52;120.10;;;65.45;;
52106;SDS011;38105;52.968;5.974;2023-05-09T06:17:18;113.20;;;61.92;;
52106;SDS011;38105;52.968;5.974;2023-05-09T06:19:44;111.97;;;62.70;;
52106;SDS011;38105;52.968;5.974;2023-05-09T06:22:10;120.57;;;63.38;;
52106;SDS011;38105;52.968;5.974;2023-05-09T06:24:35;109.03;;;63.22;;
52106;SDS011;38105;52.968;5.974;2023-05-09T06:27:01;110.75;;;62.28;;
52106;SDS011;38105;52.968;5.974;2023-05-09T06:29:27;111.65;;;62.75;;
52106;SDS011;38105;52.968;5.974;2023-05-09T06:31:53;114.15;;;62.65;;
52106;SDS011;38105;52.968;5.974;2023-05-09T06:34:18;107.63;;;61.53;;
52106;SDS011;38105;52.968;5.974;2023-05-09T06:36:44;106.85;;;62.92;;
52106;SDS011;38105;52.968;5.974;2023-05-09T06:39:09;113.03;;;64.03;;
52106;SDS011;38105;52.968;5.974;2023-05-09T06:41:35;114.13;;;65.50;;
52106;SDS011;38105;52.968;5.974;2023-05-09T06:44:00;109.30;;;63.80;;
52106;SDS011;38105;52.968;5.974;2023-05-09T06:46:26;108.78;;;63.80;;
52106;SDS011;38105;52.968;5.974;2023-05-09T06:48:52;110.78;;;64.55;;
52106;SDS011;38105;52.968;5.974;2023-05-09T06:51:18;107.53;;;62.05;;
52106;SDS011;38105;52.968;5.974;2023-05-09T06:53:44;100.68;;;59.72;;
52106;SDS011;38105;52.968;5.974;2023-05-09T06:56:09;108.22;;;61.83;;
52106;SDS011;38105;52.968;5.974;2023-05-09T06:58:36;105.53;;;60.88;;
52106;SDS011;38105;52.968;5.974;2023-05-09T07:01:01;95.22;;;57.40;;
52106;SDS011;38105;52.968;5.974;2023-05-09T07:03:28;103.93;;;62.67;;
52106;SDS011;38105;52.968;5.974;2023-05-09T07:05:54;93.13;;;59.17;;
52106;SDS011;38105;52.968;5.974;2023-05-09T07:08:22;89.68;;;57.78;;
52106;SDS011;38105;52.968;5.974;2023-05-09T07:10:48;98.93;;;59.33;;
52106;SDS011;38105;52.968;5.974;2023-05-09T07:13:14;84.93;;;55.65;;
52106;SDS011;38105;52.968;5.974;2023-05-09T07:15:40;90.47;;;56.63;;
52106;SDS011;38105;52.968;5.974;2023-05-09T07:18:06;88.45;;;53.72;;
52106;SDS011;38105;52.968;5.974;2023-05-09T07:20:31;90.25;;;56.72;;
52106;SDS011;38105;52.968;5.974;2023-05-09T07:22:57;75.45;;;50.58;;
52106;SDS011;38105;52.968;5.974;2023-05-09T07:25:23;80.93;;;50.47;;
52106;SDS011;38105;52.968;5.974;2023-05-09T07:27:48;79.50;;;51.70;;
52106;SDS011;38105;52.968;5.974;2023-05-09T07:30:14;83.22;;;52.78;;
52106;SDS011;38105;52.968;5.974;2023-05-09T07:32:40;81.30;;;52.35;;
52106;SDS011;38105;52.968;5.974;2023-05-09T07:35:05;71.75;;;47.72;;
52106;SDS011;38105;52.968;5.974;2023-05-09T07:37:31;72.85;;;47.53;;
52106;SDS011;38105;52.968;5.974;2023-05-09T07:39:57;67.05;;;46.42;;
52106;SDS011;38105;52.968;5.974;2023-05-09T07:42:23;62.80;;;41.47;;
52106;SDS011;38105;52.968;5.974;2023-05-09T07:44:48;58.38;;;41.03;;
52106;SDS011;38105;52.968;5.974;2023-05-09T07:47:14;56.17;;;39.72;;
52106;SDS011;38105;52.968;5.974;2023-05-09T07:49:40;57.22;;;38.47;;
52106;SDS011;38105;52.968;5.974;2023-05-09T07:52:07;51.90;;;36.47;;
52106;SDS011;38105;52.968;5.974;2023-05-09T07:54:33;51.88;;;36.08;;
52106;SDS011;38105;52.968;5.974;2023-05-09T07:56:58;50.92;;;33.90;;
52106;SDS011;38105;52.968;5.974;2023-05-09T07:59:24;49.78;;;33.58;;
52106;SDS011;38105;52.968;5.974;2023-05-09T08:01:50;48.75;;;30.83;;
52106;SDS011;38105;52.968;5.974;2023-05-09T08:04:15;42.55;;;29.45;;
52106;SDS011;38105;52.968;5.974;2023-05-09T08:06:41;41.78;;;28.20;;
52106;SDS011;38105;52.968;5.974;2023-05-09T08:09:06;40.22;;;27.85;;
52106;SDS011;38105;52.968;5.974;2023-05-09T08:11:32;41.83;;;26.88;;
52106;SDS011;38105;52.968;5.974;2023-05-09T08:13:59;37.38;;;24.95;;
52106;SDS011;38105;52.968;5.974;2023-05-09T08:16:25;37.65;;;25.20;;
52106;SDS011;38105;52.968;5.974;2023-05-09T08:18:51;42.13;;;26.50;;
52106;SDS011;38105;52.968;5.974;2023-05-09T08:21:18;36.08;;;24.65;;
52106;SDS011;38105;52.968;5.974;2023-05-09T08:23:44;35.90;;;23.10;;
52106;SDS011;38105;52.968;5.974;2023-05-09T08:26:09;31.10;;;21.98;;
52106;SDS011;38105;52.968;5.974;2023-05-09T08:28:35;35.05;;;21.15;;
52106;SDS011;38105;52.968;5.974;2023-05-09T08:31:01;34.20;;;21.60;;
52106;SDS011;38105;52.968;5.974;2023-05-09T08:33:26;35.92;;;22.63;;
52106;SDS011;38105;52.968;5.974;2023-05-09T08:35:52;36.60;;;22.42;;
52106;SDS011;38105;52.968;5.974;2023-05-09T08:38:19;36.85;;;22.65;;
52106;SDS011;38105;52.968;5.974;2023-05-09T08:40:45;31.13;;;21.75;;
52106;SDS011;38105;52.968;5.974;2023-05-09T08:43:11;31.85;;;22.55;;
52106;SDS011;38105;52.968;5.974;2023-05-09T08:45:49;32.13;;;21.20;;
52106;SDS011;38105;52.968;5.974;2023-05-09T08:48:17;32.03;;;21.25;;
52106;SDS011;38105;52.968;5.974;2023-05-09T08:50:43;29.55;;;21.27;;
52106;SDS011;38105;52.968;5.974;2023-05-09T08:53:10;31.15;;;21.08;;
52106;SDS011;38105;52.968;5.974;2023-05-09T08:55:36;36.10;;;21.73;;
52106;SDS011;38105;52.968;5.974;2023-05-09T08:58:02;30.48;;;22.10;;
52106;SDS011;38105;52.968;5.974;2023-05-09T09:00:30;30.50;;;21.15;;
52106;SDS011;38105;52.968;5.974;2023-05-09T09:02:57;35.70;;;23.35;;
52106;SDS011;38105;52.968;5.974;2023-05-09T09:05:26;33.00;;;22.42;;
52106;SDS011;38105;52.968;5.974;2023-05-09T09:07:54;35.58;;;22.40;;
52106;SDS011;38105;52.968;5.974;2023-05-09T09:10:21;31.90;;;21.85;;
52106;SDS011;38105;52.968;5.974;2023-05-09T09:12:51;32.65;;;22.13;;
52106;SDS011;38105;52.968;5.974;2023-05-09T09:15:18;34.05;;;22.50;;
52106;SDS011;38105;52.968;5.974;2023-05-09T09:17:47;32.85;;;21.70;;
52106;SDS011;38105;52.968;5.974;2023-05-09T09:20:15;34.83;;;22.55;;
52106;SDS011;38105;52.968;5.974;2023-05-09T09:22:45;36.30;;;22.75;;
52106;SDS011;38105;52.968;5.974;2023-05-09T09:25:12;31.08;;;22.65;;
52106;SDS011;38105;52.968;5.974;2023-05-09T09:27:37;31.40;;;21.98;;
52106;SDS011;38105;52.968;5.974;2023-05-09T09:30:09;33.38;;;22.73;;
52106;SDS011;38105;52.968;5.974;2023-05-09T09:32:35;31.30;;;23.23;;
52106;SDS011;38105;52.968;5.974;2023-05-09T09:35:03;30.13;;;22.23;;
52106;SDS011;38105;52.968;5.974;2023-05-09T09:37:31;30.38;;;21.02;;
52106;SDS011;38105;52.968;5.974;2023-05-09T09:40:01;31.15;;;21.23;;
52106;SDS011;38105;52.968;5.974;2023-05-09T09:42:39;32.40;;;23.75;;
52106;SDS011;38105;52.968;5.974;2023-05-09T09:47:41;32.20;;;22.60;;
52106;SDS011;38105;52.968;5.974;2023-05-09T09:50:11;31.05;;;21.50;;
52106;SDS011;38105;52.968;5.974;2023-05-09T09:52:48;29.35;;;21.88;;
52106;SDS011;38105;52.968;5.974;2023-05-09T09:55:19;33.28;;;22.20;;
52106;SDS011;38105;52.968;5.974;2023-05-09T09:57:46;31.42;;;21.17;;
52106;SDS011;38105;52.968;5.974;2023-05-09T10:00:13;28.63;;;20.70;;
52106;SDS011;38105;52.968;5.974;2023-05-09T10:02:53;30.55;;;22.48;;
52106;SDS011;38105;52.968;5.974;2023-05-09T10:05:21;30.83;;;21.50;;
52106;SDS011;38105;52.968;5.974;2023-05-09T10:07:52;27.83;;;22.30;;
52106;SDS011;38105;52.968;5.974;2023-05-09T10:10:26;28.52;;;21.25;;
52106;SDS011;38105;52.968;5.974;2023-05-09T10:12:55;29.95;;;22.35;;
52106;SDS011;38105;52.968;5.974;2023-05-09T10:15:22;28.52;;;20.27;;
52106;SDS011;38105;52.968;5.974;2023-05-09T10:17:49;25.88;;;20.70;;
52106;SDS011;38105;52.968;5.974;2023-05-09T10:20:19;29.08;;;19.15;;
52106;SDS011;38105;52.968;5.974;2023-05-09T10:22:45;28.77;;;20.90;;
52106;SDS011;38105;52.968;5.974;2023-05-09T10:25:16;28.75;;;20.58;;
52106;SDS011;38105;52.968;5.974;2023-05-09T10:27:45;28.30;;;20.27;;
52106;SDS011;38105;52.968;5.974;2023-05-09T10:30:14;26.17;;;18.95;;
52106;SDS011;38105;52.968;5.974;2023-05-09T10:32:47;26.67;;;19.38;;
52106;SDS011;38105;52.968;5.974;2023-05-09T10:35:28;30.13;;;19.95;;
52106;SDS011;38105;52.968;5.974;2023-05-09T10:37:56;28.52;;;20.10;;
52106;SDS011;38105;52.968;5.974;2023-05-09T10:40:22;27.88;;;20.13;;
52106;SDS011;38105;52.968;5.974;2023-05-09T10:42:48;29.48;;;21.95;;
52106;SDS011;38105;52.968;5.974;2023-05-09T10:45:13;27.90;;;20.90;;
52106;SDS011;38105;52.968;5.974;2023-05-09T10:47:40;28.20;;;21.42;;
52106;SDS011;38105;52.968;5.974;2023-05-09T10:50:07;27.73;;;20.67;;
52106;SDS011;38105;52.968;5.974;2023-05-09T10:53:03;27.40;;;20.73;;
52106;SDS011;38105;52.968;5.974;2023-05-09T11:00:58;31.55;;;22.50;;
52106;SDS011;38105;52.968;5.974;2023-05-09T11:03:25;34.15;;;22.77;;
52106;SDS011;38105;52.968;5.974;2023-05-09T11:05:53;32.47;;;20.77;;
52106;SDS011;38105;52.968;5.974;2023-05-09T11:08:22;32.72;;;22.40;;
52106;SDS011;38105;52.968;5.974;2023-05-09T11:10:49;33.80;;;23.10;;
52106;SDS011;38105;52.968;5.974;2023-05-09T11:13:20;31.00;;;22.70;;
52106;SDS011;38105;52.968;5.974;2023-05-09T11:18:26;34.22;;;23.65;;
52106;SDS011;38105;52.968;5.974;2023-05-09T11:20:53;34.28;;;24.65;;
52106;SDS011;38105;52.968;5.974;2023-05-09T11:23:19;31.90;;;24.45;;
52106;SDS011;38105;52.968;5.974;2023-05-09T11:25:49;31.00;;;24.58;;
52106;SDS011;38105;52.968;5.974;2023-05-09T11:28:25;33.55;;;23.73;;
52106;SDS011;38105;52.968;5.974;2023-05-09T11:30:52;29.50;;;24.15;;
52106;SDS011;38105;52.968;5.974;2023-05-09T11:33:32;31.05;;;23.77;;
52106;SDS011;38105;52.968;5.974;2023-05-09T11:36:20;29.13;;;24.02;;
52106;SDS011;38105;52.968;5.974;2023-05-09T11:39:06;26.98;;;23.80;;
52106;SDS011;38105;52.968;5.974;2023-05-09T11:41:38;26.92;;;23.40;;
52106;SDS011;38105;52.968;5.974;2023-05-09T11:44:13;28.08;;;24.00;;
52106;SDS011;38105;52.968;5.974;2023-05-09T11:46:41;26.23;;;23.02;;
52106;SDS011;38105;52.968;5.974;2023-05-09T11:49:07;27.67;;;22.88;;
52106;SDS011;38105;52.968;5.974;2023-05-09T11:51:34;25.73;;;22.45;;
52106;SDS011;38105;52.968;5.974;2023-05-09T11:54:01;26.98;;;23.45;;
52106;SDS011;38105;52.968;5.974;2023-05-09T11:56:29;23.17;;;20.70;;
52106;SDS011;38105;52.968;5.974;2023-05-09T11:58:54;28.90;;;23.45;;
52106;SDS011;38105;52.968;5.974;2023-05-09T12:01:21;27.70;;;23.15;;
52106;SDS011;38105;52.968;5.974;2023-05-09T12:03:47;25.40;;;21.08;;
52106;SDS011;38105;52.968;5.974;2023-05-09T12:06:17;22.35;;;20.05;;
52106;SDS011;38105;52.968;5.974;2023-05-09T12:08:46;24.55;;;21.17;;
52106;SDS011;38105;52.968;5.974;2023-05-09T12:11:12;23.27;;;19.73;;
52106;SDS011;38105;52.968;5.974;2023-05-09T12:13:46;21.95;;;19.42;;
52106;SDS011;38105;52.968;5.974;2023-05-09T12:16:12;21.65;;;19.35;;
52106;SDS011;38105;52.968;5.974;2023-05-09T12:18:43;20.35;;;18.20;;
52106;SDS011;38105;52.968;5.974;2023-05-09T12:21:13;21.48;;;19.25;;
52106;SDS011;38105;52.968;5.974;2023-05-09T12:23:39;20.00;;;17.83;;
52106;SDS011;38105;52.968;5.974;2023-05-09T12:26:05;18.15;;;16.02;;
52106;SDS011;38105;52.968;5.974;2023-05-09T12:28:30;16.52;;;14.68;;
52106;SDS011;38105;52.968;5.974;2023-05-09T12:30:57;14.45;;;11.43;;
52106;SDS011;38105;52.968;5.974;2023-05-09T12:33:23;12.60;;;11.38;;
52106;SDS011;38105;52.968;5.974;2023-05-09T12:35:59;12.85;;;11.55;;
52106;SDS011;38105;52.968;5.974;2023-05-09T12:38:28;13.00;;;11.70;;
52106;SDS011;38105;52.968;5.974;2023-05-09T12:43:28;14.30;;;12.50;;
52106;SDS011;38105;52.968;5.974;2023-05-09T12:45:58;12.40;;;11.15;;
52106;SDS011;38105;52.968;5.974;2023-05-09T12:48:25;14.20;;;12.55;;
52106;SDS011;38105;52.968;5.974;2023-05-09T12:50:51;14.18;;;12.65;;
52106;SDS011;38105;52.968;5.974;2023-05-09T12:53:24;13.70;;;11.95;;
52106;SDS011;38105;52.968;5.974;2023-05-09T12:55:54;14.93;;;13.35;;
52106;SDS011;38105;52.968;5.974;2023-05-09T12:58:27;11.82;;;10.60;;
52106;SDS011;38105;52.968;5.974;2023-05-09T13:00:57;8.70;;;7.80;;
52106;SDS011;38105;52.968;5.974;2023-05-09T13:03:23;8.00;;;7.20;;
52106;SDS011;38105;52.968;5.974;2023-05-09T13:05:58;6.43;;;5.80;;
52106;SDS011;38105;52.968;5.974;2023-05-09T13:08:25;7.50;;;4.70;;
52106;SDS011;38105;52.968;5.974;2023-05-09T13:10:52;4.70;;;4.10;;
52106;SDS011;38105;52.968;5.974;2023-05-09T13:13:18;4.78;;;3.70;;
52106;SDS011;38105;52.968;5.974;2023-05-09T13:15:44;5.03;;;4.50;;
52106;SDS011;38105;52.968;5.974;2023-05-09T13:18:11;5.50;;;4.10;;
52106;SDS011;38105;52.968;5.974;2023-05-09T13:20:37;6.85;;;4.00;;
52106;SDS011;38105;52.968;5.974;2023-05-09T13:23:03;7.28;;;4.75;;
52106;SDS011;38105;52.968;5.974;2023-05-09T13:25:28;4.50;;;3.97;;
52106;SDS011;38105;52.968;5.974;2023-05-09T13:27:54;6.15;;;4.10;;
52106;SDS011;38105;52.968;5.974;2023-05-09T13:30:20;5.90;;;4.53;;
52106;SDS011;38105;52.968;5.974;2023-05-09T13:32:46;8.63;;;4.30;;
52106;SDS011;38105;52.968;5.974;2023-05-09T13:35:12;6.78;;;4.50;;
52106;SDS011;38105;52.968;5.974;2023-05-09T13:37:38;6.18;;;4.78;;
52106;SDS011;38105;52.968;5.974;2023-05-09T13:40:04;6.53;;;4.72;;
52106;SDS011;38105;52.968;5.974;2023-05-09T13:42:32;7.35;;;6.00;;
52106;SDS011;38105;52.968;5.974;2023-05-09T13:44:58;5.80;;;5.20;;
52106;SDS011;38105;52.968;5.974;2023-05-09T13:47:24;7.00;;;5.93;;
52106;SDS011;38105;52.968;5.974;2023-05-09T13:49:50;6.97;;;6.28;;
52106;SDS011;38105;52.968;5.974;2023-05-09T13:52:16;7.40;;;6.03;;
52106;SDS011;38105;52.968;5.974;2023-05-09T13:54:42;7.78;;;6.97;;
52106;SDS011;38105;52.968;5.974;2023-05-09T13:57:08;8.15;;;7.35;;
52106;SDS011;38105;52.968;5.974;2023-05-09T13:59:33;8.27;;;7.47;;
52106;SDS011;38105;52.968;5.974;2023-05-09T14:01:59;7.65;;;6.75;;
52106;SDS011;38105;52.968;5.974;2023-05-09T14:04:25;8.88;;;7.03;;
52106;SDS011;38105;52.968;5.974;2023-05-09T14:06:52;10.57;;;8.07;;
52106;SDS011;38105;52.968;5.974;2023-05-09T14:09:18;8.52;;;7.60;;
52106;SDS011;38105;52.968;5.974;2023-05-09T14:11:46;7.40;;;6.68;;
52106;SDS011;38105;52.968;5.974;2023-05-09T14:14:12;6.65;;;6.03;;
52106;SDS011;38105;52.968;5.974;2023-05-09T14:16:38;7.50;;;6.80;;
52106;SDS011;38105;52.968;5.974;2023-05-09T14:19:04;7.53;;;6.75;;
52106;SDS011;38105;52.968;5.974;2023-05-09T14:21:31;7.40;;;6.70;;
52106;SDS011;38105;52.968;5.974;2023-05-09T14:23:57;8.45;;;6.22;;
52106;SDS011;38105;52.968;5.974;2023-05-09T14:26:22;7.45;;;6.43;;
52106;SDS011;38105;52.968;5.974;2023-05-09T14:28:50;6.20;;;5.60;;
52106;SDS011;38105;52.968;5.974;2023-05-09T14:31:17;5.97;;;5.30;;
52106;SDS011;38105;52.968;5.974;2023-05-09T14:33:43;8.05;;;6.38;;
52106;SDS011;38105;52.968;5.974;2023-05-09T14:36:08;6.13;;;5.50;;
52106;SDS011;38105;52.968;5.974;2023-05-09T14:38:35;8.25;;;5.40;;
52106;SDS011;38105;52.968;5.974;2023-05-09T14:41:01;7.78;;;5.93;;
52106;SDS011;38105;52.968;5.974;2023-05-09T14:43:27;6.28;;;5.20;;
52106;SDS011;38105;52.968;5.974;2023-05-09T14:45:53;6.03;;;5.18;;
52106;SDS011;38105;52.968;5.974;2023-05-09T14:48:19;5.30;;;4.80;;
52106;SDS011;38105;52.968;5.974;2023-05-09T14:50:45;5.85;;;5.10;;
52106;SDS011;38105;52.968;5.974;2023-05-09T14:53:10;5.07;;;4.50;;